Time;durP1;ratioP1;P1;durP2;ratioP2;P2;SDS_P1;SDS_P2;PMS_P1;PMS_P2;Temp;Humidity;BMP_temperature;BMP_pressure;BME280_temperature;BME280_humidity;BME280_pressure;Samples;Min_cycle;Max_cycle;Signal;HPM_P1;HPM_P2
2021/03/29 00:02:15;;;;;;;0.50;0.50;;;;;;;6.50;93.52;101603.09;5020875;28;20456;-55
2021/03/29 00:04:42;;;;;;;0.30;0.20;;;;;;;6.37;93.21;101593.28;5017705;28;20468;-55
2021/03/29 00:07:09;;;;;;;0.30;0.20;;;;;;;6.36;93.32;101595.94;5020814;28;20969;-56
2021/03/29 00:09:37;;;;;;;0.30;0.20;;;;;;;6.12;94.80;101592.16;5017655;28;20484;-55
2021/03/29 00:12:06;;;;;;;0.30;0.20;;;;;;;6.22;94.05;101587.88;5020415;28;20521;-55
2021/03/29 00:14:33;;;;;;;0.30;0.20;;;;;;;6.11;94.73;101586.88;5018401;28;20448;-55
2021/03/29 00:16:59;;;;;;;0.30;0.20;;;;;;;6.21;94.81;101586.09;5019353;28;20448;-55
2021/03/29 00:19:28;;;;;;;0.30;0.20;;;;;;;6.72;92.68;101588.34;5019312;28;20537;-56
2021/03/29 00:21:55;;;;;;;0.30;0.20;;;;;;;6.23;95.11;101603.72;5019245;28;20502;-55
2021/03/29 00:24:22;;;;;;;1.90;1.07;;;;;;;6.20;95.69;101595.78;5019441;28;20448;-55
2021/03/29 00:26:48;;;;;;;0.30;0.20;;;;;;;6.06;94.37;101588.59;5017743;28;20449;-55
2021/03/29 00:29:15;;;;;;;0.30;0.20;;;;;;;6.09;96.09;101597.41;5019529;28;20475;-55
2021/03/29 00:31:42;;;;;;;0.30;0.20;;;;;;;5.97;95.86;101586.72;5018734;28;20518;-55
2021/03/29 00:34:08;;;;;;;0.30;0.20;;;;;;;6.53;94.51;101597.84;5019833;28;20447;-55
2021/03/29 00:36:35;;;;;;;0.30;0.20;;;;;;;5.92;97.07;101599.88;5036737;28;20463;-55
2021/03/29 00:39:06;;;;;;;0.30;0.20;;;;;;;6.16;95.44;101599.22;5039309;28;20466;-55
2021/03/29 00:41:33;;;;;;;0.30;0.20;;;;;;;6.03;96.41;101602.63;5024037;28;20926;-55
2021/03/29 00:44:00;;;;;;;0.30;0.20;;;;;;;6.15;95.30;101593.94;5023890;28;20464;-55
2021/03/29 00:46:27;;;;;;;0.30;0.20;;;;;;;6.28;94.71;101597.59;5016413;28;20463;-55
2021/03/29 00:48:54;;;;;;;0.30;0.20;;;;;;;6.18;94.22;101591.34;5014827;28;20472;-55
2021/03/29 00:51:23;;;;;;;0.30;0.20;;;;;;;6.39;94.32;101602.13;5030170;28;20552;-55
2021/03/29 00:53:52;;;;;;;0.30;0.20;;;;;;;6.56;92.93;101601.38;5011169;28;20510;-55
2021/03/29 00:56:20;;;;;;;0.30;0.20;;;;;;;5.99;96.44;101610.47;5025575;28;20524;-55
2021/03/29 00:58:48;;;;;;;0.40;0.33;;;;;;;6.17;94.48;101608.06;5012380;28;20920;-54
2021/03/29 01:01:16;;;;;;;0.30;0.20;;;;;;;6.07;95.75;101603.56;5024396;28;20453;-54
2021/03/29 01:03:58;;;;;;;0.30;0.20;;;;;;;6.09;95.80;101602.69;5012138;28;20500;-55
2021/03/29 01:06:27;;;;;;;0.30;0.20;;;;;;;6.21;95.24;101600.19;5025333;28;20452;-53
2021/03/29 01:08:59;;;;;;;0.30;0.20;;;;;;;6.40;93.66;101603.88;5012521;28;20472;-54
2021/03/29 01:11:31;;;;;;;0.30;0.20;;;;;;;6.03;95.12;101605.28;5010904;28;20489;-53
2021/03/29 01:14:04;;;;;;;0.30;0.20;;;;;;;6.04;95.37;101606.16;5025063;28;20447;-53
2021/03/29 01:16:39;;;;;;;0.30;0.20;;;;;;;6.17;94.30;101595.75;5012122;28;20448;-54
2021/03/29 01:19:13;;;;;;;0.30;0.20;;;;;;;6.19;94.48;101601.94;5027242;28;20466;-53
2021/03/29 01:21:52;;;;;;;0.30;0.20;;;;;;;6.05;95.38;101595.63;5020696;28;20503;-53
2021/03/29 01:24:38;;;;;;;0.30;0.20;;;;;;;6.05;95.77;101603.53;5011910;28;20452;-54
2021/03/29 01:27:05;;;;;;;1.57;1.47;;;;;;;5.85;96.64;101599.72;5025027;28;20452;-53
2021/03/29 01:29:32;;;;;;;0.30;0.20;;;;;;;5.99;95.78;101613.13;5011787;28;20970;-53
2021/03/29 01:32:00;;;;;;;0.30;0.20;;;;;;;6.12;95.04;101612.41;5024886;28;20491;-54
2021/03/29 01:34:29;;;;;;;0.30;0.20;;;;;;;6.09;95.49;101615.00;5024756;28;20451;-54
2021/03/29 01:36:56;;;;;;;0.30;0.20;;;;;;;5.93;96.72;101617.47;5021968;28;20452;-54
2021/03/29 01:39:23;;;;;;;0.40;0.33;;;;;;;5.95;95.34;101614.84;5043952;28;20520;-54
2021/03/29 01:41:50;;;;;;;0.30;0.20;;;;;;;5.79;96.16;101615.50;5024456;28;20448;-54
2021/03/29 01:44:18;;;;;;;0.30;0.20;;;;;;;5.78;97.42;101619.00;5024639;28;20459;-54
2021/03/29 01:46:45;;;;;;;0.30;0.20;;;;;;;5.72;97.35;101624.19;5019124;28;20543;-54
2021/03/29 01:49:12;;;;;;;0.30;0.20;;;;;;;5.67;97.84;101613.59;5025577;28;20476;-54
2021/03/29 01:51:39;;;;;;;0.30;0.20;;;;;;;5.56;98.34;101617.84;5030842;28;20542;-54
2021/03/29 01:54:06;;;;;;;0.30;0.20;;;;;;;5.52;98.10;101614.28;5015077;28;20535;-54
2021/03/29 01:56:32;;;;;;;0.30;0.20;;;;;;;5.63;97.63;101617.94;5028296;28;20449;-54
2021/03/29 01:58:58;;;;;;;0.30;0.20;;;;;;;5.59;97.54;101620.50;5014768;28;20487;-54
2021/03/29 02:01:25;;;;;;;0.30;0.13;;;;;;;5.70;97.02;101610.09;5028123;28;20445;-53
2021/03/29 02:03:51;;;;;;;0.30;0.20;;;;;;;5.54;97.41;101617.81;5014857;28;20449;-54
2021/03/29 02:06:18;;;;;;;0.30;0.20;;;;;;;5.54;96.95;101617.81;5028053;28;20449;-54
2021/03/29 02:08:45;;;;;;;0.30;0.20;;;;;;;5.57;97.04;101616.97;5025441;28;20836;-54
2021/03/29 02:11:12;;;;;;;0.30;0.20;;;;;;;5.44;97.25;101609.75;5030167;28;20492;-54
2021/03/29 02:13:42;;;;;;;0.30;0.20;;;;;;;5.41;97.88;101605.34;5014532;28;20452;-54
2021/03/29 02:16:11;;;;;;;0.30;0.20;;;;;;;5.45;97.03;101604.50;5027955;28;20456;-54
2021/03/29 02:18:55;;;;;;;0.30;0.20;;;;;;;5.29;96.90;101605.16;5014858;28;20900;-54
2021/03/29 02:21:29;;;;;;;0.30;0.20;;;;;;;5.47;95.65;101605.41;5026753;28;20449;-54
2021/03/29 02:23:57;;;;;;;0.30;0.20;;;;;;;5.54;95.67;101614.31;5016228;28;20503;-54
2021/03/29 02:26:29;;;;;;;0.30;0.20;;;;;;;5.51;95.50;101615.16;5025652;28;20453;-54
2021/03/29 02:28:56;;;;;;;0.30;0.20;;;;;;;5.57;95.00;101609.06;5017074;28;21050;-54
2021/03/29 02:31:25;;;;;;;0.30;0.20;;;;;;;5.76;94.62;101608.44;5024307;28;20546;-54
2021/03/29 02:33:51;;;;;;;0.30;0.20;;;;;;;5.74;94.45;101604.88;5017729;28;20514;-54
2021/03/29 02:36:20;;;;;;;0.30;0.13;;;;;;;5.84;94.51;101611.16;5023932;28;20453;-54
2021/03/29 02:38:48;;;;;;;0.30;0.20;;;;;;;5.81;94.12;101606.75;5024225;28;20463;-54
2021/03/29 02:41:15;;;;;;;0.30;0.20;;;;;;;5.74;94.09;101609.25;5029723;28;20985;-54
2021/03/29 02:43:45;;;;;;;0.30;0.20;;;;;;;5.65;94.51;101594.22;5027360;28;20460;-54
2021/03/29 02:46:12;;;;;;;0.30;0.20;;;;;;;5.47;94.66;101607.16;5017485;28;20517;-54
2021/03/29 02:48:41;;;;;;;0.30;0.20;;;;;;;5.46;94.92;101608.91;5020353;28;20475;-54
2021/03/29 02:51:16;;;;;;;0.30;0.20;;;;;;;5.45;95.28;101606.25;5033452;28;21019;-55
2021/03/29 02:53:49;;;;;;;0.30;0.20;;;;;;;5.20;95.74;101607.66;5021633;28;20871;-54
2021/03/29 02:56:20;;;;;;;0.30;0.10;;;;;;;5.30;96.28;101602.53;5018315;28;20452;-54
2021/03/29 02:58:53;;;;;;;0.30;0.20;;;;;;;5.22;96.51;101603.31;5023030;28;20479;-54
2021/03/29 03:01:23;;;;;;;0.30;0.20;;;;;;;5.05;96.77;101606.56;5035176;28;20860;-54
2021/03/29 03:03:51;;;;;;;0.30;0.20;;;;;;;5.08;96.58;101607.50;5023138;28;20518;-54
2021/03/29 03:06:28;;;;;;;0.30;0.20;;;;;;;5.11;96.73;101602.28;5017742;28;20937;-54
2021/03/29 03:08:56;;;;;;;0.30;0.20;;;;;;;5.05;97.10;101609.19;5033286;28;20470;-54
2021/03/29 03:11:22;;;;;;;0.37;0.33;;;;;;;4.99;97.57;101609.13;5027406;28;20492;-54
2021/03/29 03:13:49;;;;;;;0.30;0.20;;;;;;;4.91;97.95;101610.72;5013469;28;20459;-54
2021/03/29 03:16:16;;;;;;;0.30;0.20;;;;;;;4.99;98.31;101614.38;5025405;28;20448;-54
2021/03/29 03:18:46;;;;;;;0.30;0.20;;;;;;;5.08;97.79;101611.03;5014596;28;20477;-54
2021/03/29 03:21:15;;;;;;;0.30;0.20;;;;;;;5.08;97.85;101612.78;5013608;28;20984;-54
2021/03/29 03:23:53;;;;;;;0.30;0.20;;;;;;;4.98;98.29;101609.09;5026487;28;20505;-54
2021/03/29 03:26:20;;;;;;;0.30;0.20;;;;;;;4.97;98.19;101621.38;5013505;28;20452;-54
2021/03/29 03:28:46;;;;;;;0.30;0.20;;;;;;;5.05;98.58;101618.84;5026357;28;20503;-54
2021/03/29 03:31:12;;;;;;;0.30;0.20;;;;;;;5.12;97.71;101614.59;5013516;28;20491;-52
2021/03/29 03:33:39;;;;;;;0.30;0.20;;;;;;;4.96;97.63;101618.72;5026236;28;20502;-53
2021/03/29 03:36:05;;;;;;;0.30;0.20;;;;;;;5.08;97.89;101615.41;5013357;28;20867;-53
2021/03/29 03:38:35;;;;;;;0.30;0.20;;;;;;;4.96;98.33;101622.25;5031606;28;21037;-52
2021/03/29 03:41:09;;;;;;;0.30;0.20;;;;;;;4.84;97.89;101618.53;5031919;28;20453;-53
2021/03/29 03:43:40;;;;;;;0.30;0.20;;;;;;;4.65;99.27;101617.31;5026205;28;20953;-53
2021/03/29 03:46:20;;;;;;;0.30;0.20;;;;;;;4.55;100.00;101616.31;5015802;28;20455;-53
2021/03/29 03:48:47;;;;;;;0.30;0.10;;;;;;;4.84;98.90;101618.53;5020392;28;20482;-53
2021/03/29 03:51:14;;;;;;;0.30;0.20;;;;;;;4.61;99.59;101620.78;5031319;28;20835;-53
2021/03/29 03:53:41;;;;;;;0.30;0.10;;;;;;;4.62;99.57;101620.78;5012975;28;20502;-53
2021/03/29 03:56:09;;;;;;;0.30;0.20;;;;;;;4.56;99.94;101627.72;5025839;28;20456;-53
2021/03/29 03:58:35;;;;;;;0.30;0.20;;;;;;;4.34;100.00;101624.69;5012876;28;20558;-53
2021/03/29 04:01:05;;;;;;;0.30;0.20;;;;;;;4.27;100.00;101624.56;5026319;28;20452;-53
2021/03/29 04:03:31;;;;;;;0.30;0.20;;;;;;;4.35;100.00;101625.56;5012788;28;20448;-53
2021/03/29 04:05:58;;;;;;;0.30;0.20;;;;;;;4.30;99.65;101624.63;5026082;28;20459;-54
2021/03/29 04:08:44;;;;;;;0.30;0.20;;;;;;;4.39;99.99;101625.69;5012922;28;20464;-53
2021/03/29 04:11:11;;;;;;;0.30;0.20;;;;;;;4.49;99.93;101621.44;5025926;28;20547;-53
2021/03/29 04:13:37;;;;;;;0.30;0.20;;;;;;;4.31;99.41;101618.50;5013022;28;20483;-53
2021/03/29 04:16:06;;;;;;;0.30;0.20;;;;;;;4.33;99.30;101629.94;5026084;28;20954;-52
2021/03/29 04:18:33;;;;;;;0.30;0.20;;;;;;;4.11;100.00;101628.63;5012531;28;20468;-52
2021/03/29 04:20:59;;;;;;;0.30;0.20;;;;;;;4.15;100.00;101633.13;5027368;28;20453;-52
2021/03/29 04:23:28;;;;;;;0.30;0.20;;;;;;;4.09;100.00;101635.59;5012929;28;20483;-52
2021/03/29 04:25:55;;;;;;;0.30;0.20;;;;;;;4.30;99.65;101629.88;5025969;28;20452;-52
2021/03/29 04:28:21;;;;;;;0.30;0.20;;;;;;;4.12;100.00;101628.69;5012522;28;20476;-52
2021/03/29 04:30:48;;;;;;;0.30;0.20;;;;;;;3.84;99.72;101632.50;5025509;28;20578;-53
2021/03/29 04:33:15;;;;;;;0.30;0.20;;;;;;;3.89;100.00;101626.44;5012327;28;20452;-52
2021/03/29 04:35:41;;;;;;;0.30;0.20;;;;;;;3.96;100.00;101631.84;5025708;28;20526;-53
2021/03/29 04:38:07;;;;;;;0.30;0.10;;;;;;;3.96;100.00;101636.22;5011282;28;20476;-53
2021/03/29 04:40:34;;;;;;;0.30;0.20;;;;;;;4.02;99.59;101644.25;5038983;28;20487;-53
2021/03/29 04:43:00;;;;;;;0.30;0.20;;;;;;;4.03;99.90;101644.28;5025479;28;20451;-53
2021/03/29 04:45:26;;;;;;;0.30;0.20;;;;;;;4.19;98.76;101652.47;5011072;28;20456;-53
2021/03/29 04:47:52;;;;;;;0.30;0.20;;;;;;;4.04;99.63;101648.69;5016046;28;20480;-53
2021/03/29 04:50:21;;;;;;;0.30;0.20;;;;;;;3.94;100.00;101646.72;5031927;28;20456;-53
2021/03/29 04:52:48;;;;;;;0.30;0.20;;;;;;;3.81;100.00;101655.22;5018364;28;20570;-52
2021/03/29 04:55:17;;;;;;;0.30;0.20;;;;;;;3.80;100.00;101669.22;5019323;28;20936;-53
2021/03/29 04:57:43;;;;;;;0.30;0.20;;;;;;;3.79;100.00;101665.69;5017414;28;21002;-53
2021/03/29 05:00:11;;;;;;;0.30;0.20;;;;;;;3.83;100.00;101662.25;5019532;28;20451;-53
2021/03/29 05:02:37;;;;;;;0.30;0.20;;;;;;;3.81;100.00;101666.63;5017591;28;20445;-53
2021/03/29 05:05:05;;;;;;;0.30;0.20;;;;;;;3.85;100.00;101672.84;5020306;28;20455;-53
2021/03/29 05:07:31;;;;;;;0.30;0.10;;;;;;;3.92;100.00;101672.09;5018826;28;20468;-53
2021/03/29 05:09:58;;;;;;;0.30;0.20;;;;;;;3.93;100.00;101670.34;5024095;28;20872;-53
2021/03/29 05:12:24;;;;;;;0.30;0.20;;;;;;;3.90;100.00;101672.94;5020493;28;20496;-53
2021/03/29 05:14:52;;;;;;;0.30;0.20;;;;;;;3.84;100.00;101673.72;5023890;28;20451;-53
2021/03/29 05:17:19;;;;;;;0.30;0.20;;;;;;;3.98;100.00;101684.50;5020613;28;20479;-53
2021/03/29 05:19:45;;;;;;;0.30;0.20;;;;;;;3.98;100.00;101685.41;5025199;28;21010;-53
2021/03/29 05:22:12;;;;;;;0.30;0.10;;;;;;;4.00;100.00;101670.53;5020103;28;20448;-53
2021/03/29 05:24:38;;;;;;;0.30;0.10;;;;;;;3.95;100.00;101684.41;5024207;28;20451;-53
2021/03/29 05:27:06;;;;;;;0.30;0.20;;;;;;;3.97;100.00;101686.22;5020014;28;20464;-53
2021/03/29 05:29:43;;;;;;;0.30;0.20;;;;;;;3.95;100.00;101680.06;5023964;28;20476;-53
2021/03/29 05:32:13;;;;;;;0.30;0.20;;;;;;;4.00;99.97;101680.16;5018297;28;20500;-53
2021/03/29 05:34:40;;;;;;;0.30;0.20;;;;;;;3.87;100.00;101689.53;5026244;28;20447;-53
2021/03/29 05:37:06;;;;;;;0.30;0.20;;;;;;;3.88;100.00;101685.16;5017554;28;20502;-53
2021/03/29 05:39:33;;;;;;;0.30;0.10;;;;;;;3.85;100.00;101689.50;5036992;28;20462;-53
2021/03/29 05:41:59;;;;;;;0.30;0.10;;;;;;;3.82;100.00;101685.91;5023035;28;20507;-53
2021/03/29 05:44:26;;;;;;;0.30;0.20;;;;;;;3.88;100.00;101693.06;5023677;28;20468;-53
2021/03/29 05:46:52;;;;;;;0.30;0.20;;;;;;;3.96;100.00;101694.09;5019450;28;20460;-53
2021/03/29 05:49:19;;;;;;;0.30;0.20;;;;;;;4.00;100.00;101698.59;5021035;28;20475;-53
2021/03/29 05:51:45;;;;;;;0.30;0.10;;;;;;;3.91;100.00;101706.25;5029845;28;20990;-53
2021/03/29 05:54:12;;;;;;;0.30;0.20;;;;;;;4.07;100.00;101711.00;5015212;28;20874;-53
2021/03/29 05:56:40;;;;;;;0.30;0.13;;;;;;;4.16;100.00;101717.34;5027369;28;20453;-53
2021/03/29 05:59:34;;;;;;;0.30;0.20;;;;;;;4.32;100.00;101713.28;5014878;28;20515;-53
2021/03/29 06:01:56;;;;;;;0.30;0.20;;;;;;;4.40;100.00;101713.44;5023047;28;20505;-53
2021/03/29 06:04:45;;;;;;;0.30;0.20;;;;;;;4.34;100.00;101719.44;5019339;28;20449;-53
2021/03/29 06:07:25;;;;;;;0.30;0.20;;;;;;;4.52;100.00;101731.19;5026747;28;20824;-53
2021/03/29 06:09:54;;;;;;;0.30;0.20;;;;;;;4.57;100.00;101733.06;5021995;28;20472;-53
2021/03/29 06:12:22;;;;;;;1.27;1.17;;;;;;;4.79;100.00;101731.69;5020566;28;20547;-52
2021/03/29 06:15:03;;;;;;;0.30;0.20;;;;;;;4.78;100.00;101735.19;5022141;28;20502;-53
2021/03/29 06:17:29;;;;;;;0.30;0.17;;;;;;;4.88;99.88;101731.88;5017711;28;20946;-52
2021/03/29 06:20:00;;;;;;;0.30;0.10;;;;;;;5.05;99.97;101738.31;5025722;28;20463;-53
2021/03/29 06:22:31;;;;;;;0.30;0.20;;;;;;;5.42;98.40;101735.41;5017648;28;20437;-53
2021/03/29 06:25:00;;;;;;;0.30;0.20;;;;;;;5.51;98.01;101733.81;5025540;28;20504;-53
2021/03/29 06:27:30;;;;;;;0.30;0.20;;;;;;;5.64;96.79;101729.63;5016045;28;20460;-53
2021/03/29 06:30:15;;;;;;;0.30;0.10;;;;;;;5.86;95.97;101733.44;5026318;28;20517;-53
2021/03/29 06:33:03;;;;;;;0.30;0.20;;;;;;;5.84;95.68;101732.53;5026245;28;20976;-53
2021/03/29 06:35:40;;;;;;;0.30;0.20;;;;;;;5.93;95.00;101730.94;5018602;28;20933;-53
2021/03/29 06:38:20;;;;;;;0.30;0.20;;;;;;;6.21;94.40;101719.00;5021476;28;20475;-53
2021/03/29 06:40:52;;;;;;;20.13;5.27;;;;;;;6.48;93.71;101725.47;5022701;28;20826;-53
2021/03/29 06:43:29;;;;;;;2.07;1.93;;;;;;;6.42;93.11;101730.66;5017761;28;20452;-53
2021/03/29 06:46:07;;;;;;;0.30;0.20;;;;;;;6.74;92.04;101731.03;5024629;28;20811;-52
2021/03/29 06:48:36;;;;;;;0.30;0.20;;;;;;;6.79;91.84;101727.56;5014821;28;20472;-53
2021/03/29 06:51:20;;;;;;;0.30;0.20;;;;;;;6.95;91.49;101731.22;5026538;28;20499;-53
2021/03/29 06:53:58;;;;;;;1.70;1.60;;;;;;;7.01;91.85;101723.38;5025061;28;20460;-53
2021/03/29 06:56:34;;;;;;;0.30;0.20;;;;;;;7.27;92.46;101733.28;5017114;28;20988;-53
2021/03/29 06:59:03;;;;;;;2.63;2.60;;;;;;;7.49;89.48;101734.31;5021047;28;20483;-54
2021/03/29 07:01:37;;;;;;;0.30;0.20;;;;;;;7.58;89.40;101729.09;5018932;28;20451;-54
2021/03/29 07:04:05;;;;;;;0.30;0.20;;;;;;;7.47;89.66;101730.78;5020791;28;20926;-53
2021/03/29 07:06:34;;;;;;;0.30;0.20;;;;;;;7.49;88.83;101735.22;5019911;28;20999;-54
2021/03/29 07:09:07;;;;;;;0.30;0.20;;;;;;;7.65;87.91;101733.56;5038774;28;20478;-54
2021/03/29 07:11:35;;;;;;;0.30;0.20;;;;;;;7.87;87.50;101740.75;5021076;28;20487;-54
2021/03/29 07:14:03;;;;;;;0.30;0.20;;;;;;;7.96;87.28;101739.94;5032532;28;20459;-54
2021/03/29 07:16:31;;;;;;;0.30;0.20;;;;;;;8.10;87.21;101738.25;5013776;28;20448;-53
2021/03/29 07:19:05;;;;;;;0.30;0.20;;;;;;;8.27;85.58;101743.63;5027808;28;20471;-54
2021/03/29 07:21:32;;;;;;;0.40;0.30;;;;;;;8.42;84.98;101742.81;5024525;28;20452;-54
2021/03/29 07:24:07;;;;;;;0.30;0.20;;;;;;;8.67;83.92;101734.06;5015687;28;20455;-54
2021/03/29 07:26:38;;;;;;;0.30;0.20;;;;;;;8.61;84.72;101745.53;5023138;28;20478;-54
2021/03/29 07:29:26;;;;;;;0.30;0.20;;;;;;;8.63;83.10;101749.94;5017056;28;20472;-54
2021/03/29 07:32:01;;;;;;;0.30;0.20;;;;;;;8.92;82.38;101745.63;5019185;28;20507;-55
2021/03/29 07:34:44;;;;;;;0.30;0.20;;;;;;;9.02;81.69;101749.16;5021484;28;20458;-54
2021/03/29 07:37:34;;;;;;;0.30;0.20;;;;;;;9.19;81.52;101752.72;5016042;28;20483;-55
2021/03/29 07:40:06;;;;;;;0.30;0.20;;;;;;;9.28;79.67;101751.81;5039859;28;20973;-54
2021/03/29 07:42:34;;;;;;;0.30;0.20;;;;;;;9.10;80.66;101750.06;5022243;28;20937;-55
2021/03/29 07:45:07;;;;;;;0.30;0.20;;;;;;;9.37;79.41;101755.38;5029857;28;20516;-55
2021/03/29 07:47:40;;;;;;;0.30;0.20;;;;;;;9.60;78.36;101758.03;5016959;28;20942;-54
2021/03/29 07:50:09;;;;;;;0.30;0.20;;;;;;;9.78;77.80;101763.31;5031363;28;20498;-54
2021/03/29 07:52:46;;;;;;;0.30;0.20;;;;;;;9.93;77.63;101756.19;5019564;28;20500;-54
2021/03/29 07:55:18;;;;;;;0.30;0.20;;;;;;;10.12;76.13;101757.91;5019816;28;20470;-54
2021/03/29 07:57:44;;;;;;;0.40;0.30;;;;;;;10.19;76.10;101759.66;5018292;28;20496;-54
2021/03/29 08:00:25;;;;;;;0.30;0.20;;;;;;;10.57;76.29;101759.53;5021007;28;20444;-54
2021/03/29 08:02:53;;;;;;;0.30;0.20;;;;;;;10.58;76.31;101766.63;5016308;28;20449;-54
2021/03/29 08:05:39;;;;;;;0.30;0.20;;;;;;;10.80;75.30;101762.06;5022916;28;20509;-54
2021/03/29 08:10:59;;;;;;;0.30;0.20;;;;;;;10.98;74.17;101772.63;5024642;28;20491;-54
2021/03/29 08:13:49;;;;;;;0.30;0.20;;;;;;;11.00;75.32;101767.28;5012901;28;20471;-54
2021/03/29 08:16:28;;;;;;;0.30;0.20;;;;;;;11.26;74.03;101764.44;5025906;28;20448;-54
2021/03/29 08:19:24;;;;;;;0.30;0.20;;;;;;;11.47;73.59;101761.56;5015251;28;21059;-54
2021/03/29 08:21:59;;;;;;;0.30;0.20;;;;;;;11.63;73.36;101757.00;5020294;28;20453;-54
2021/03/29 08:24:41;;;;;;;0.30;0.20;;;;;;;11.78;72.45;101762.16;5020238;28;20513;-54
2021/03/29 08:27:07;;;;;;;0.30;0.20;;;;;;;11.82;70.52;101760.41;5016858;28;20459;-55
2021/03/29 08:29:35;;;;;;;0.40;0.33;;;;;;;11.85;70.93;101765.72;5021512;28;20475;-55
2021/03/29 08:32:16;;;;;;;0.30;0.20;;;;;;;12.11;71.41;101765.44;5016350;28;20488;-55
2021/03/29 08:35:05;;;;;;;0.30;0.20;;;;;;;12.26;70.94;101767.94;5024095;28;20542;-55
2021/03/29 08:37:41;;;;;;;0.30;0.20;;;;;;;12.31;69.87;101755.41;5024235;28;20491;-55
2021/03/29 08:40:11;;;;;;;0.30;0.20;;;;;;;12.18;71.69;101764.44;5039433;28;20455;-55
2021/03/29 08:42:39;;;;;;;0.30;0.20;;;;;;;12.60;70.92;101762.16;5026345;28;20443;-55
2021/03/29 08:45:08;;;;;;;0.30;0.20;;;;;;;12.59;70.30;101755.06;5019375;28;20506;-55
2021/03/29 08:47:38;;;;;;;0.30;0.20;;;;;;;12.72;69.57;101754.88;5020135;28;20464;-55
2021/03/29 08:50:08;;;;;;;0.30;0.20;;;;;;;13.05;69.07;101757.97;5028622;28;20807;-55
2021/03/29 08:52:41;;;;;;;0.30;0.20;;;;;;;13.11;68.00;101757.00;5024006;28;20523;-55
2021/03/29 08:55:08;;;;;;;0.30;0.20;;;;;;;13.18;67.78;101754.25;5022523;28;20483;-55
2021/03/29 08:57:35;;;;;;;0.30;0.20;;;;;;;13.25;67.09;101761.25;5022670;28;20449;-55
2021/03/29 09:00:08;;;;;;;0.30;0.20;;;;;;;13.40;66.30;101756.56;5021563;28;20898;-55
2021/03/29 09:02:35;;;;;;;0.30;0.20;;;;;;;13.72;66.46;101745.34;5021620;28;20453;-53
2021/03/29 09:05:04;;;;;;;0.30;0.20;;;;;;;13.91;65.22;101752.97;5023832;28;20543;-53
2021/03/29 09:07:43;;;;;;;0.30;0.30;;;;;;;14.07;65.43;101750.88;5020921;28;20499;-54
2021/03/29 09:10:19;;;;;;;0.30;0.20;;;;;;;14.14;64.82;101749.84;5025840;28;20443;-54
2021/03/29 09:12:58;;;;;;;0.30;0.20;;;;;;;14.20;66.60;101757.75;5017947;28;20492;-54
2021/03/29 09:15:27;;;;;;;0.30;0.20;;;;;;;14.44;64.63;101753.72;5028804;28;20991;-54
2021/03/29 09:18:02;;;;;;;0.30;0.20;;;;;;;14.68;63.24;101759.47;5028932;28;20480;-54
2021/03/29 09:20:40;;;;;;;0.40;0.20;;;;;;;14.69;63.82;101756.78;5029766;28;20443;-54
2021/03/29 09:23:08;;;;;;;0.30;0.20;;;;;;;15.08;61.62;101752.31;5015927;28;20444;-54
2021/03/29 09:25:40;;;;;;;0.30;0.20;;;;;;;15.14;61.75;101756.63;5029050;28;20455;-54
2021/03/29 09:31:22;;;;;;;0.30;0.20;;;;;;;15.59;59.48;101759.97;5024906;28;20491;-54
2021/03/29 09:33:49;;;;;;;0.40;0.20;;;;;;;15.33;58.53;101755.25;5017757;28;20937;-55
2021/03/29 09:36:19;;;;;;;0.33;0.20;;;;;;;15.38;58.50;101761.38;5026854;28;20459;-54
2021/03/29 09:38:53;;;;;;;0.30;0.20;;;;;;;15.54;57.79;101756.53;5021589;28;20468;-54
2021/03/29 09:41:22;;;;;;;0.87;0.87;;;;;;;15.66;56.73;101748.19;5022462;28;20815;-55
2021/03/29 09:43:54;;;;;;;0.40;0.20;;;;;;;15.77;56.37;101749.72;5028488;28;20445;-54
2021/03/29 09:46:31;;;;;;;0.40;0.40;;;;;;;15.81;56.13;101757.63;5028776;28;20510;-55
2021/03/29 09:49:12;;;;;;;0.40;0.20;;;;;;;15.98;57.58;101757.19;5018449;28;20486;-54
2021/03/29 09:51:40;;;;;;;0.40;0.20;;;;;;;16.24;56.65;101746.59;5030755;28;20496;-55
2021/03/29 09:54:45;;;;;;;0.40;0.30;;;;;;;16.34;56.07;101749.03;5014286;28;20452;-54
2021/03/29 09:57:17;;;;;;;0.40;0.20;;;;;;;16.57;54.74;101738.47;5023421;28;20463;-56
2021/03/29 09:59:44;;;;;;;8.30;0.70;;;;;;;16.35;55.85;101737.38;5017807;28;20942;-55
2021/03/29 10:02:13;;;;;;;0.40;0.20;;;;;;;16.40;54.76;101747.03;5025620;28;20448;-55
2021/03/29 10:04:42;;;;;;;0.40;0.20;;;;;;;16.75;54.58;101746.00;5017236;28;20456;-55
2021/03/29 10:07:16;;;;;;;0.40;0.20;;;;;;;16.92;54.08;101745.50;5026259;28;20460;-55
2021/03/29 10:09:47;;;;;;;0.40;0.20;;;;;;;16.92;53.53;101753.53;5015917;28;20447;-55
2021/03/29 10:12:25;;;;;;;0.40;0.20;;;;;;;17.27;53.17;101756.91;5027779;28;20487;-54
2021/03/29 10:15:05;;;;;;;0.40;0.20;;;;;;;17.39;50.59;101753.81;5026503;28;20448;-53
2021/03/29 10:17:32;;;;;;;0.40;0.20;;;;;;;17.67;50.82;101746.56;5017808;28;20942;-52
2021/03/29 10:20:24;;;;;;;0.40;0.20;;;;;;;17.75;50.38;101740.97;5034787;28;20521;-56
2021/03/29 10:22:50;;;;;;;0.40;0.20;;;;;;;17.85;49.75;101747.78;5027233;28;20460;-56
2021/03/29 10:25:26;;;;;;;0.40;0.20;;;;;;;17.98;49.30;101742.84;5014716;28;20527;-56
2021/03/29 10:27:54;;;;;;;0.40;0.20;;;;;;;18.05;49.78;101753.31;5022629;28;20525;-56
2021/03/29 10:30:26;;;;;;;0.50;0.47;;;;;;;17.74;49.59;101742.78;5019181;28;20452;-56
2021/03/29 10:33:01;;;;;;;0.40;0.20;;;;;;;18.29;49.20;101743.47;5024054;28;20549;-56
2021/03/29 10:35:29;;;;;;;0.40;0.20;;;;;;;18.16;48.34;101744.84;5016978;28;20452;-56
2021/03/29 10:38:02;;;;;;;0.40;0.20;;;;;;;18.45;48.23;101748.28;5024906;28;20502;-56
2021/03/29 10:40:29;;;;;;;0.40;0.20;;;;;;;18.59;49.26;101737.84;5042062;28;20880;-56
2021/03/29 10:42:55;;;;;;;0.40;0.20;;;;;;;18.66;47.67;101741.22;5025532;28;20813;-56
2021/03/29 10:45:21;;;;;;;0.40;0.20;;;;;;;18.72;46.40;101735.59;5014178;28;20460;-56
2021/03/29 10:47:48;;;;;;;0.40;0.20;;;;;;;18.73;46.36;101734.66;5018187;28;20507;-56
2021/03/29 10:50:21;;;;;;;0.40;0.20;;;;;;;18.80;46.32;101730.78;5027473;28;20824;-56
2021/03/29 10:52:47;;;;;;;0.40;0.20;;;;;;;18.90;45.89;101735.72;5020486;28;20515;-56
2021/03/29 10:55:14;;;;;;;0.40;0.30;;;;;;;18.87;44.21;101735.00;5021017;28;20452;-56
2021/03/29 10:57:41;;;;;;;0.40;0.20;;;;;;;18.91;44.75;101728.53;5019936;28;20475;-56
2021/03/29 11:00:09;;;;;;;0.40;0.20;;;;;;;19.08;44.06;101722.47;5021175;28;20447;-56
2021/03/29 11:02:36;;;;;;;0.40;0.20;;;;;;;19.25;44.72;101714.56;5019525;28;20445;-56
2021/03/29 11:05:06;;;;;;;0.40;0.20;;;;;;;19.40;43.71;101721.13;5021455;28;20455;-56
2021/03/29 11:07:32;;;;;;;0.40;0.30;;;;;;;19.39;43.97;101705.88;5018910;28;20511;-56
2021/03/29 11:09:59;;;;;;;0.40;0.20;;;;;;;19.64;43.67;101713.84;5021887;28;20474;-56
2021/03/29 11:12:25;;;;;;;0.40;0.30;;;;;;;19.72;42.35;101707.16;5018562;28;20489;-56
2021/03/29 11:14:51;;;;;;;0.40;0.20;;;;;;;19.67;43.21;101708.31;5022137;28;20451;-56
2021/03/29 11:17:20;;;;;;;0.40;0.20;;;;;;;19.89;42.25;101717.22;5018124;28;20469;-56
2021/03/29 11:19:46;;;;;;;0.40;0.20;;;;;;;20.06;41.63;101708.38;5023447;28;20822;-56
2021/03/29 11:22:13;;;;;;;0.97;0.97;;;;;;;20.09;40.45;101708.22;5017815;28;20453;-56
2021/03/29 11:24:39;;;;;;;0.40;0.20;;;;;;;20.11;41.02;101698.22;5021123;28;20883;-56
2021/03/29 11:27:05;;;;;;;0.50;0.30;;;;;;;20.11;40.49;101693.69;5017987;28;20452;-56
2021/03/29 11:29:31;;;;;;;0.40;0.20;;;;;;;20.22;41.26;101701.31;5022112;28;20476;-56
2021/03/29 11:31:58;;;;;;;0.40;0.20;;;;;;;20.23;39.54;101696.78;5017535;28;20585;-56
2021/03/29 11:34:24;;;;;;;0.40;0.20;;;;;;;20.35;39.92;101697.09;5022031;28;20451;-56
2021/03/29 11:36:50;;;;;;;0.40;0.20;;;;;;;20.38;39.35;101698.78;5018098;28;20483;-56
2021/03/29 11:39:16;;;;;;;0.40;0.20;;;;;;;20.01;39.20;101694.19;5031578;28;20536;-56
2021/03/29 11:41:42;;;;;;;0.40;0.20;;;;;;;20.20;40.39;101695.09;5023634;28;20445;-56
2021/03/29 11:44:08;;;;;;;0.40;0.20;;;;;;;20.36;38.95;101693.44;5023956;28;20503;-56
2021/03/29 11:46:35;;;;;;;0.40;0.20;;;;;;;19.89;38.63;101687.53;5017210;28;20522;-56
2021/03/29 11:49:02;;;;;;;0.50;0.33;;;;;;;20.18;40.34;101683.50;5016673;28;20478;-57
2021/03/29 11:51:29;;;;;;;0.40;0.20;;;;;;;20.39;39.37;101687.88;5030468;28;20483;-56